createdAt,value
2017-08-20T00:01:30.671Z,19.40
2017-08-20T00:03:58.166Z,19.30
2017-08-20T00:06:25.674Z,19.40
2017-08-20T00:08:53.219Z,19.40
2017-08-20T00:11:20.762Z,19.40
2017-08-20T00:13:48.296Z,19.40
2017-08-20T00:16:15.830Z,19.50
2017-08-20T00:18:43.318Z,19.40
2017-08-20T00:21:10.964Z,19.40
2017-08-20T00:23:38.463Z,19.30
2017-08-20T00:26:05.958Z,19.30
2017-08-20T00:28:33.488Z,19.40
2017-08-20T00:31:00.998Z,19.30
2017-08-20T00:33:28.542Z,19.20
2017-08-20T00:35:56.061Z,19.20
2017-08-20T00:38:23.540Z,19.20
2017-08-20T00:40:51.076Z,19.30
2017-08-20T00:43:19.342Z,19.30
2017-08-20T00:45:46.909Z,19.30
2017-08-20T00:48:14.422Z,19.40
2017-08-20T00:50:41.952Z,19.40
2017-08-20T00:53:09.485Z,19.40
2017-08-20T00:55:36.984Z,19.40
2017-08-20T00:58:04.522Z,19.50
2017-08-20T01:00:32.041Z,19.50
2017-08-20T01:02:59.550Z,19.50
2017-08-20T01:05:27.128Z,19.50
2017-08-20T01:07:54.640Z,19.50
2017-08-20T01:10:22.943Z,19.30
2017-08-20T01:12:50.441Z,19.30
2017-08-20T01:15:18.007Z,19.30
2017-08-20T01:17:45.516Z,19.20
2017-08-20T01:20:13.094Z,19.20
2017-08-20T01:22:40.590Z,19.20
2017-08-20T01:25:08.096Z,19.10
2017-08-20T01:27:35.636Z,19.10
2017-08-20T01:30:03.221Z,19.10
2017-08-20T01:32:30.777Z,19.10
2017-08-20T01:34:58.327Z,19.10
2017-08-20T01:37:25.858Z,19.00
2017-08-20T01:39:53.460Z,18.90
2017-08-20T01:42:20.975Z,18.90
2017-08-20T01:44:48.517Z,18.90
2017-08-20T01:47:16.048Z,18.90
2017-08-20T01:49:43.552Z,18.90
2017-08-20T01:52:11.352Z,18.80
2017-08-20T01:54:38.859Z,18.70
2017-08-20T01:57:06.395Z,18.70
2017-08-20T01:59:33.887Z,18.70
2017-08-20T02:02:01.432Z,18.60
2017-08-20T02:04:28.981Z,18.60
2017-08-20T02:06:56.569Z,18.70
2017-08-20T02:09:24.074Z,18.60
2017-08-20T02:11:51.615Z,18.60
2017-08-20T02:14:19.137Z,18.70
2017-08-20T02:16:46.689Z,18.60
2017-08-20T02:19:14.209Z,18.60
2017-08-20T02:21:41.771Z,18.50
2017-08-20T02:24:09.251Z,18.60
2017-08-20T02:26:36.807Z,18.60
2017-08-20T02:29:04.298Z,18.50
2017-08-20T02:31:31.788Z,18.40
2017-08-20T02:33:59.344Z,18.40
2017-08-20T02:36:27.615Z,18.40
2017-08-20T02:38:55.170Z,18.40
2017-08-20T02:41:22.649Z,18.40
2017-08-20T02:43:50.919Z,18.40
2017-08-20T02:46:18.464Z,18.40
2017-08-20T02:48:45.979Z,18.40
2017-08-20T02:51:13.492Z,18.50
2017-08-20T02:53:41.011Z,18.50
2017-08-20T02:56:08.592Z,18.50
2017-08-20T02:58:36.129Z,18.50
2017-08-20T03:01:03.688Z,18.40
2017-08-20T03:03:31.197Z,18.40
2017-08-20T03:05:58.687Z,18.30
2017-08-20T03:08:27.005Z,18.40
2017-08-20T03:10:54.522Z,18.30
2017-08-20T03:13:22.084Z,18.30
2017-08-20T03:15:49.583Z,18.30
2017-08-20T03:18:17.079Z,18.40
2017-08-20T03:20:44.613Z,18.30
2017-08-20T03:23:12.147Z,18.30
2017-08-20T03:25:40.268Z,18.30
2017-08-20T03:28:07.845Z,18.30
2017-08-20T03:30:35.364Z,18.20
2017-08-20T03:33:03.647Z,18.20
2017-08-20T03:35:31.186Z,18.20
2017-08-20T03:37:58.706Z,18.20
2017-08-20T03:40:26.241Z,18.20
2017-08-20T03:42:53.816Z,18.20
2017-08-20T03:45:21.326Z,18.20
2017-08-20T03:47:49.643Z,18.30
2017-08-20T03:50:17.219Z,18.30
2017-08-20T03:52:44.731Z,18.40
2017-08-20T03:55:12.220Z,18.40
2017-08-20T03:57:39.787Z,18.50
2017-08-20T04:00:07.332Z,18.50
2017-08-20T04:02:34.872Z,18.60
2017-08-20T04:05:03.183Z,18.60
2017-08-20T04:07:30.726Z,18.60
2017-08-20T04:09:58.243Z,18.60
2017-08-20T04:12:25.796Z,18.60
2017-08-20T04:14:53.338Z,18.60
2017-08-20T04:17:20.843Z,18.70
2017-08-20T04:19:48.411Z,18.70
2017-08-20T04:22:16.680Z,18.60
2017-08-20T04:24:44.242Z,18.60
2017-08-20T04:27:11.741Z,18.60
2017-08-20T04:29:39.293Z,18.60
2017-08-20T04:32:06.792Z,18.50
2017-08-20T04:34:34.411Z,18.50
2017-08-20T04:37:01.939Z,18.50
2017-08-20T04:39:30.221Z,18.50
2017-08-20T04:41:58.524Z,18.40
2017-08-20T04:44:26.040Z,18.40
2017-08-20T04:46:53.590Z,18.40
2017-08-20T04:49:21.092Z,18.40
2017-08-20T04:51:48.615Z,18.30
2017-08-20T04:54:16.178Z,18.30
2017-08-20T04:56:44.455Z,18.20
2017-08-20T04:59:11.974Z,18.20
2017-08-20T05:01:39.544Z,18.20
2017-08-20T05:04:07.085Z,18.20
2017-08-20T05:06:34.652Z,18.20
2017-08-20T05:09:02.160Z,18.30
2017-08-20T05:11:29.697Z,18.30
2017-08-20T05:13:57.225Z,18.30
2017-08-20T05:16:24.763Z,18.30
2017-08-20T05:18:52.304Z,18.20
2017-08-20T05:21:19.822Z,18.20
2017-08-20T05:23:47.346Z,18.30
2017-08-20T05:26:14.888Z,18.30
2017-08-20T05:28:42.408Z,18.40
2017-08-20T05:31:10.918Z,18.40
2017-08-20T05:33:39.180Z,18.40
2017-08-20T05:36:06.831Z,18.40
2017-08-20T05:38:34.389Z,18.40
2017-08-20T05:41:01.913Z,18.40
2017-08-20T05:43:29.469Z,18.40
2017-08-20T05:45:57.000Z,18.50
2017-08-20T05:48:24.570Z,18.50
2017-08-20T05:50:52.076Z,18.60
2017-08-20T05:53:19.600Z,18.70
2017-08-20T05:55:47.150Z,18.70
2017-08-20T05:58:14.690Z,18.80
2017-08-20T06:00:43.000Z,18.90
2017-08-20T06:03:10.556Z,18.90
2017-08-20T06:05:38.081Z,18.90
2017-08-20T06:08:05.625Z,19.00
2017-08-20T06:10:33.131Z,18.90
2017-08-20T06:13:00.625Z,19.00
2017-08-20T06:15:28.213Z,19.00
2017-08-20T06:17:55.710Z,19.00
2017-08-20T06:20:23.336Z,19.10
2017-08-20T06:22:51.610Z,19.10
2017-08-20T06:25:19.125Z,19.10
2017-08-20T06:27:46.656Z,19.00
2017-08-20T06:30:14.142Z,19.00
2017-08-20T06:32:41.675Z,18.90
2017-08-20T06:35:09.186Z,19.00
2017-08-20T06:37:36.685Z,19.00
2017-08-20T06:40:04.298Z,18.90
2017-08-20T06:42:31.818Z,18.90
2017-08-20T06:44:59.373Z,18.90
2017-08-20T06:47:26.917Z,19.00
2017-08-20T06:49:54.476Z,18.90
2017-08-20T06:52:21.993Z,18.90
2017-08-20T06:54:49.512Z,18.90
2017-08-20T06:57:17.083Z,18.80
2017-08-20T06:59:44.582Z,18.80
2017-08-20T07:02:12.163Z,18.80
2017-08-20T07:04:40.482Z,18.80
2017-08-20T07:07:08.043Z,18.80
2017-08-20T07:09:35.542Z,18.80
2017-08-20T07:12:03.049Z,18.80
2017-08-20T07:14:30.595Z,18.90
2017-08-20T07:16:58.075Z,18.90
2017-08-20T07:19:25.597Z,19.00
2017-08-20T07:21:53.127Z,19.00
2017-08-20T07:24:20.626Z,19.00
2017-08-20T07:26:48.163Z,19.00
2017-08-20T07:29:15.667Z,19.10
2017-08-20T07:31:43.225Z,19.10
2017-08-20T07:34:10.744Z,19.10
2017-08-20T07:36:39.113Z,19.20
2017-08-20T07:39:06.621Z,19.10
2017-08-20T07:41:34.124Z,19.20
2017-08-20T07:44:01.665Z,19.20
2017-08-20T07:46:29.198Z,19.20
2017-08-20T07:48:56.788Z,19.30
2017-08-20T07:51:24.279Z,19.30
2017-08-20T07:53:51.784Z,19.40
2017-08-20T07:56:19.344Z,19.50
2017-08-20T07:58:46.893Z,19.40
2017-08-20T08:01:14.489Z,19.50
2017-08-20T08:03:41.994Z,19.50
2017-08-20T08:06:09.539Z,19.50
2017-08-20T08:08:37.798Z,19.60
2017-08-20T08:11:05.307Z,19.70
2017-08-20T08:13:32.898Z,19.80
2017-08-20T08:16:00.400Z,19.90
2017-08-20T08:18:27.924Z,19.90
2017-08-20T08:20:55.933Z,19.90
2017-08-20T08:23:23.436Z,19.90
2017-08-20T08:25:50.928Z,19.90
2017-08-20T08:28:18.512Z,20.00
2017-08-20T08:30:46.797Z,20.10
2017-08-20T08:33:14.286Z,20.10
2017-08-20T08:35:41.846Z,20.10
2017-08-20T08:38:09.407Z,20.10
2017-08-20T08:40:36.908Z,20.10
2017-08-20T08:43:05.209Z,20.20
2017-08-20T08:45:32.769Z,20.20
2017-08-20T08:48:00.290Z,20.20
2017-08-20T08:50:27.843Z,20.20
2017-08-20T08:52:55.336Z,20.20
2017-08-20T08:55:22.884Z,20.30
2017-08-20T08:57:50.415Z,20.30
2017-08-20T09:00:17.944Z,20.40
2017-08-20T09:02:45.488Z,20.40
2017-08-20T09:05:12.986Z,20.40
2017-08-20T09:07:40.506Z,20.50
2017-08-20T09:10:08.223Z,20.60
2017-08-20T09:12:35.724Z,20.60
2017-08-20T09:15:03.239Z,20.70
2017-08-20T09:17:30.821Z,20.80
2017-08-20T09:19:59.132Z,20.90
2017-08-20T09:22:26.710Z,20.90
2017-08-20T09:24:54.253Z,20.90
2017-08-20T09:27:21.773Z,20.80
2017-08-20T09:29:50.079Z,21.10
2017-08-20T09:32:17.625Z,21.10
2017-08-20T09:34:45.179Z,21.20
2017-08-20T09:37:12.707Z,21.30
2017-08-20T09:39:40.208Z,21.30
2017-08-20T09:42:08.646Z,21.30
2017-08-20T09:44:36.159Z,21.40
2017-08-20T09:47:03.919Z,21.40
2017-08-20T09:49:31.480Z,21.50
2017-08-20T09:51:58.987Z,21.60
2017-08-20T09:54:26.563Z,21.70
2017-08-20T09:56:54.901Z,21.80
2017-08-20T09:59:22.410Z,21.80
2017-08-20T10:01:50.828Z,21.80
2017-08-20T10:04:18.332Z,21.80
2017-08-20T10:06:45.819Z,21.80
2017-08-20T10:09:13.373Z,22.00
2017-08-20T10:11:40.874Z,22.10
2017-08-20T10:14:08.430Z,22.10
2017-08-20T10:16:35.956Z,22.00
2017-08-20T10:19:03.455Z,22.10
2017-08-20T10:21:31.013Z,22.10
2017-08-20T10:23:58.534Z,22.10
2017-08-20T10:26:26.260Z,22.20
2017-08-20T10:28:53.769Z,22.20
2017-08-20T10:31:21.296Z,22.40
2017-08-20T10:33:48.844Z,22.40
2017-08-20T10:36:16.334Z,22.50
2017-08-20T10:38:43.886Z,22.50
2017-08-20T10:41:12.184Z,22.40
2017-08-20T10:43:39.749Z,22.30
2017-08-20T10:46:07.290Z,22.30
2017-08-20T10:48:34.836Z,22.40
2017-08-20T10:51:03.141Z,22.60
2017-08-20T10:53:30.636Z,22.60
2017-08-20T10:55:58.199Z,22.70
2017-08-20T10:58:25.796Z,22.80
2017-08-20T11:00:54.108Z,22.90
2017-08-20T11:03:21.645Z,22.90
2017-08-20T11:05:49.143Z,22.80
2017-08-20T11:08:16.686Z,22.80
2017-08-20T11:10:44.213Z,22.70
2017-08-20T11:13:11.758Z,22.80
2017-08-20T11:15:40.817Z,22.90
2017-08-20T11:18:08.341Z,22.90
2017-08-20T11:20:35.872Z,23.00
2017-08-20T11:23:04.154Z,23.20
2017-08-20T11:25:31.727Z,23.20
2017-08-20T11:27:59.225Z,23.10
2017-08-20T11:30:26.775Z,23.10
2017-08-20T11:32:54.375Z,23.20
2017-08-20T11:35:22.043Z,23.20
2017-08-20T11:37:49.574Z,23.30
2017-08-20T11:40:17.073Z,23.30
2017-08-20T11:42:44.612Z,23.30
2017-08-20T11:45:12.261Z,23.30
2017-08-20T11:47:39.777Z,23.30
2017-08-20T11:50:07.267Z,23.40
2017-08-20T11:52:34.820Z,23.50
2017-08-20T11:55:02.669Z,23.50
2017-08-20T11:57:30.172Z,23.60
2017-08-20T11:59:57.680Z,23.70
2017-08-20T12:02:25.300Z,23.70
2017-08-20T12:04:52.832Z,23.80
2017-08-20T12:07:20.379Z,23.80
2017-08-20T12:09:47.882Z,23.90
2017-08-20T12:12:15.452Z,24.00
2017-08-20T12:14:43.736Z,24.00
2017-08-20T12:17:11.999Z,24.10
2017-08-20T12:19:40.321Z,24.10
2017-08-20T12:22:07.823Z,24.10
2017-08-20T12:24:35.334Z,24.10
2017-08-20T12:27:02.875Z,24.30
2017-08-20T12:29:30.447Z,24.40
2017-08-20T12:31:58.064Z,24.50
2017-08-20T12:34:25.580Z,24.60
2017-08-20T12:36:53.098Z,24.80
2017-08-20T12:39:20.633Z,24.80
2017-08-20T12:41:48.119Z,24.70
2017-08-20T12:44:16.696Z,24.30
2017-08-20T12:46:44.240Z,24.30
2017-08-20T12:49:11.744Z,24.10
2017-08-20T12:51:39.306Z,24.00
2017-08-20T12:54:06.850Z,24.00
2017-08-20T12:56:34.388Z,24.00
2017-08-20T12:59:02.634Z,24.20
2017-08-20T13:01:30.115Z,24.20
2017-08-20T13:03:57.691Z,24.30
2017-08-20T13:06:25.966Z,24.50
2017-08-20T13:08:54.257Z,24.60
2017-08-20T13:11:21.812Z,24.60
2017-08-20T13:13:49.313Z,24.80
2017-08-20T13:16:16.876Z,24.90
2017-08-20T13:18:44.438Z,25.00
2017-08-20T13:21:11.958Z,24.90
2017-08-20T13:23:39.447Z,24.90
2017-08-20T13:26:07.185Z,24.90
2017-08-20T13:28:34.698Z,25.00
2017-08-20T13:31:02.206Z,25.10
2017-08-20T13:33:29.750Z,25.20
2017-08-20T13:35:58.058Z,25.10
2017-08-20T13:38:25.610Z,25.10
2017-08-20T13:40:53.137Z,25.30
2017-08-20T13:43:20.643Z,25.20
2017-08-20T13:45:48.265Z,25.20
2017-08-20T13:48:15.798Z,25.00
2017-08-20T13:50:43.343Z,25.00
2017-08-20T13:53:10.880Z,25.00
2017-08-20T13:55:38.388Z,25.00
2017-08-20T13:58:05.927Z,24.90
2017-08-20T14:00:33.477Z,24.90
2017-08-20T14:03:01.143Z,25.00
2017-08-20T14:05:28.676Z,25.10
2017-08-20T14:07:56.170Z,25.00
2017-08-20T14:10:23.746Z,25.00
2017-08-20T14:12:52.032Z,25.20
2017-08-20T14:15:20.344Z,25.10
2017-08-20T14:17:47.887Z,25.10
2017-08-20T14:20:15.482Z,25.10
2017-08-20T14:22:42.989Z,25.20
2017-08-20T14:25:10.546Z,25.10
2017-08-20T14:27:38.149Z,25.10
2017-08-20T14:30:05.730Z,25.30
2017-08-20T14:32:33.287Z,25.30
2017-08-20T14:35:00.802Z,25.00
2017-08-20T14:37:28.318Z,24.90
2017-08-20T14:39:55.891Z,24.70
2017-08-20T14:42:23.418Z,24.50
2017-08-20T14:44:50.928Z,24.40
2017-08-20T14:47:18.458Z,24.30
2017-08-20T14:49:46.019Z,24.30
2017-08-20T14:52:13.547Z,24.30
2017-08-20T14:54:41.038Z,24.20
2017-08-20T14:57:08.566Z,24.00
2017-08-20T14:59:36.064Z,23.90
2017-08-20T15:02:03.651Z,23.70
2017-08-20T15:04:31.183Z,23.40
2017-08-20T15:06:58.747Z,23.20
2017-08-20T15:09:27.028Z,23.20
2017-08-20T15:11:54.600Z,23.20
2017-08-20T15:14:22.997Z,22.90
2017-08-20T15:17:02.316Z,22.90
2017-08-20T15:19:29.915Z,22.90
2017-08-20T15:21:57.496Z,22.80
2017-08-20T15:24:25.526Z,22.60
2017-08-20T15:26:53.084Z,22.60
2017-08-20T15:29:20.626Z,22.50
2017-08-20T15:31:48.158Z,22.60
2017-08-20T15:34:15.719Z,22.70
2017-08-20T15:36:43.306Z,22.70
2017-08-20T15:39:11.922Z,22.60
2017-08-20T15:41:39.911Z,22.50
2017-08-20T15:44:07.682Z,22.50
2017-08-20T15:46:35.267Z,22.40
2017-08-20T15:49:03.576Z,22.40
2017-08-20T15:51:31.178Z,22.40
2017-08-20T15:53:58.741Z,22.40
2017-08-20T15:56:26.314Z,22.30
2017-08-20T15:58:53.952Z,22.20
2017-08-20T16:01:21.618Z,22.20
2017-08-20T16:03:49.186Z,22.20
2017-08-20T16:06:17.026Z,22.00
2017-08-20T16:08:44.794Z,21.90
2017-08-20T16:11:12.472Z,21.80
2017-08-20T16:13:40.088Z,21.80
2017-08-20T16:16:08.902Z,21.80
2017-08-20T16:18:36.485Z,21.80
2017-08-20T16:21:04.087Z,21.90
2017-08-20T16:23:31.691Z,22.00
2017-08-20T16:25:59.348Z,21.80
2017-08-20T16:28:26.982Z,21.70
2017-08-20T16:30:54.558Z,21.60
2017-08-20T16:33:22.149Z,21.60
2017-08-20T16:35:50.608Z,21.50
2017-08-20T16:38:18.196Z,21.40
2017-08-20T16:40:45.776Z,21.50
2017-08-20T16:43:13.300Z,21.40
2017-08-20T16:45:40.864Z,21.50
2017-08-20T16:48:08.403Z,21.50
2017-08-20T16:50:35.965Z,21.50
2017-08-20T17:02:43.540Z,21.50
2017-08-20T17:05:11.126Z,21.10
2017-08-20T17:07:39.457Z,21.10
2017-08-20T17:10:07.557Z,20.90
2017-08-20T17:12:35.068Z,20.90
2017-08-20T17:15:02.824Z,20.80
2017-08-20T17:17:30.487Z,20.70
2017-08-20T17:19:58.116Z,20.80
2017-08-20T17:22:25.657Z,20.80
2017-08-20T17:24:53.277Z,20.80
2017-08-20T17:27:22.124Z,20.80
2017-08-20T17:29:49.999Z,20.80
2017-08-20T17:32:17.501Z,20.70
2017-08-20T17:34:45.079Z,20.70
2017-08-20T17:37:12.647Z,20.60
2017-08-20T17:39:42.188Z,20.70
2017-08-20T17:42:10.641Z,20.70
2017-08-20T17:44:38.172Z,20.60
2017-08-20T17:47:05.730Z,20.50
2017-08-20T17:49:38.815Z,20.50
2017-08-20T17:52:08.801Z,20.60
2017-08-20T17:54:36.466Z,20.50
2017-08-20T17:57:04.035Z,20.50
2017-08-20T17:59:31.621Z,20.50
2017-08-20T18:01:59.476Z,20.40
2017-08-20T18:04:27.055Z,20.40
2017-08-20T18:06:54.586Z,20.40
2017-08-20T18:09:22.229Z,20.40
2017-08-20T18:11:49.812Z,20.40
2017-08-20T18:14:17.354Z,20.40
2017-08-20T18:16:44.899Z,20.30
2017-08-20T18:19:12.454Z,20.30
2017-08-20T18:21:40.035Z,20.30
2017-08-20T18:24:07.619Z,20.30
2017-08-20T18:26:35.183Z,20.30
2017-08-20T18:29:02.762Z,20.30
2017-08-20T18:31:30.361Z,20.20
2017-08-20T18:33:57.860Z,20.20
2017-08-20T18:36:25.432Z,20.10
2017-08-20T18:38:52.942Z,20.10
2017-08-20T18:41:20.512Z,20.10
2017-08-20T18:43:48.488Z,20.10
2017-08-20T18:46:17.333Z,20.10
2017-08-20T18:48:46.464Z,20.10
2017-08-20T18:51:14.355Z,20.10
2017-08-20T18:53:42.827Z,20.00
2017-08-20T18:56:10.380Z,20.00
2017-08-20T18:58:38.015Z,19.90
2017-08-20T19:01:05.599Z,19.90
2017-08-20T19:03:33.496Z,20.00
2017-08-20T19:06:01.411Z,19.90
2017-08-20T19:08:28.969Z,19.90
2017-08-20T19:10:56.641Z,19.90
2017-08-20T19:13:24.357Z,19.90
2017-08-20T19:15:53.295Z,20.00
2017-08-20T19:18:21.975Z,20.00
2017-08-20T19:20:50.890Z,20.10
2017-08-20T19:23:18.758Z,20.00
2017-08-20T19:25:46.569Z,20.00
2017-08-20T19:28:14.841Z,20.10
2017-08-20T19:30:42.389Z,20.10
2017-08-20T19:33:16.185Z,20.10
2017-08-20T19:35:47.918Z,20.10
2017-08-20T19:38:21.795Z,20.00
2017-08-20T19:40:51.009Z,19.90
2017-08-20T19:43:25.353Z,19.90
2017-08-20T19:45:57.276Z,19.90
2017-08-20T19:48:27.863Z,19.80
2017-08-20T19:50:58.765Z,19.80
2017-08-20T19:53:30.499Z,19.80
2017-08-20T19:56:06.163Z,19.80
2017-08-20T19:58:33.741Z,19.80
2017-08-20T20:01:01.269Z,19.70
2017-08-20T20:03:28.865Z,19.70
2017-08-20T20:05:56.397Z,19.70
2017-08-20T20:08:23.941Z,19.70
2017-08-20T20:10:51.490Z,19.70
2017-08-20T20:13:19.485Z,19.70
2017-08-20T20:15:47.662Z,19.60
2017-08-20T20:18:15.597Z,19.70
2017-08-20T20:20:43.669Z,19.70
2017-08-20T20:23:11.744Z,19.70
2017-08-20T20:25:39.653Z,19.70
2017-08-20T20:28:07.870Z,19.70
2017-08-20T20:30:36.146Z,19.70
2017-08-20T20:33:04.360Z,19.60
2017-08-20T20:35:33.575Z,19.70
2017-08-20T20:38:01.700Z,19.70
2017-08-20T20:40:29.800Z,19.70
2017-08-20T20:42:58.581Z,19.70
2017-08-20T20:45:27.028Z,19.70
2017-08-20T20:47:55.208Z,19.70
2017-08-20T20:50:23.179Z,19.80
2017-08-20T20:52:51.501Z,19.80
2017-08-20T20:55:20.139Z,19.80
2017-08-20T20:57:47.749Z,19.80
2017-08-20T21:00:15.429Z,19.70
2017-08-20T21:02:42.982Z,19.70
2017-08-20T21:05:10.555Z,19.70
2017-08-20T21:07:38.087Z,19.70
2017-08-20T21:10:06.099Z,19.70
2017-08-20T21:12:33.635Z,19.60
2017-08-20T21:15:02.021Z,19.50
2017-08-20T21:17:29.580Z,19.50
2017-08-20T21:19:57.109Z,19.60
2017-08-20T21:22:24.996Z,19.60
2017-08-20T21:24:52.814Z,19.50
2017-08-20T21:27:20.361Z,19.50
2017-08-20T21:29:48.715Z,19.50
2017-08-20T21:32:17.750Z,19.50
2017-08-20T21:34:45.425Z,19.50
2017-08-20T21:37:13.211Z,19.50
2017-08-20T21:39:40.760Z,19.50
2017-08-20T21:42:08.261Z,19.50
2017-08-20T21:44:36.485Z,19.50
2017-08-20T21:47:05.637Z,19.50
2017-08-20T21:49:33.138Z,19.40
2017-08-20T21:52:00.682Z,19.50
2017-08-20T21:54:28.790Z,19.50
2017-08-20T21:56:56.284Z,19.50
2017-08-20T21:59:25.218Z,19.60
2017-08-20T22:01:53.324Z,19.60
2017-08-20T22:04:20.860Z,19.60
2017-08-20T22:06:48.399Z,19.60
2017-08-20T22:09:16.645Z,19.60
2017-08-20T22:11:44.781Z,19.60
2017-08-20T22:14:14.522Z,19.60
2017-08-20T22:16:42.076Z,19.50
2017-08-20T22:19:09.588Z,19.60
2017-08-20T22:21:37.883Z,19.60
2017-08-20T22:24:06.097Z,19.50
2017-08-20T22:26:33.621Z,19.50
2017-08-20T22:29:01.153Z,19.40
2017-08-20T22:31:28.671Z,19.40
2017-08-20T22:33:56.222Z,19.30
2017-08-20T22:36:24.830Z,19.10
2017-08-20T22:38:52.317Z,19.10
2017-08-20T22:41:19.885Z,19.10
2017-08-20T22:43:47.483Z,19.10
2017-08-20T22:46:14.996Z,19.00
2017-08-20T22:48:43.257Z,19.00
2017-08-20T22:51:11.541Z,19.00
2017-08-20T22:53:40.172Z,19.00
2017-08-20T22:56:07.725Z,18.90
2017-08-20T22:58:35.322Z,18.90
2017-08-20T23:01:02.843Z,18.90
2017-08-20T23:03:31.603Z,18.90
2017-08-20T23:05:59.096Z,18.80
2017-08-20T23:08:26.636Z,18.80
2017-08-20T23:10:54.123Z,18.80
2017-08-20T23:13:22.128Z,18.80
2017-08-20T23:15:50.278Z,18.80
2017-08-20T23:18:17.766Z,18.90
2017-08-20T23:20:46.211Z,18.90
2017-08-20T23:23:13.878Z,18.80
2017-08-20T23:25:41.532Z,18.90
2017-08-20T23:28:09.196Z,18.90
2017-08-20T23:30:36.743Z,19.00
2017-08-20T23:33:04.251Z,19.00
2017-08-20T23:35:31.768Z,19.10
2017-08-20T23:37:59.367Z,19.10
2017-08-20T23:40:26.903Z,19.00
2017-08-20T23:42:54.427Z,19.00
2017-08-20T23:45:21.939Z,19.00
2017-08-20T23:47:49.504Z,19.00
2017-08-20T23:50:17.053Z,19.00
2017-08-20T23:52:44.613Z,19.00
2017-08-20T23:55:12.876Z,18.90
2017-08-20T23:57:41.150Z,18.90
